sensor_id;sensor_type;location;lat;lon;timestamp;P1;durP1;ratioP1;P2;durP2;ratioP2
40675;SDS011;26359;48.750;9.314;2023-03-25T00:00:49;4.97;;;4.63;;
40675;SDS011;26359;48.750;9.314;2023-03-25T00:03:17;9.00;;;8.50;;
40675;SDS011;26359;48.750;9.314;2023-03-25T00:05:44;5.97;;;5.40;;
40675;SDS011;26359;48.750;9.314;2023-03-25T00:08:09;4.55;;;4.18;;
40675;SDS011;26359;48.750;9.314;2023-03-25T00:10:35;4.13;;;3.83;;
40675;SDS011;26359;48.750;9.314;2023-03-25T00:13:00;4.50;;;3.88;;
40675;SDS011;26359;48.750;9.314;2023-03-25T00:15:29;4.13;;;3.72;;
40675;SDS011;26359;48.750;9.314;2023-03-25T00:17:57;2.95;;;2.78;;
40675;SDS011;26359;48.750;9.314;2023-03-25T00:20:24;4.40;;;4.18;;
40675;SDS011;26359;48.750;9.314;2023-03-25T00:22:49;2.60;;;1.98;;
40675;SDS011;26359;48.750;9.314;2023-03-25T00:25:15;3.28;;;3.00;;
40675;SDS011;26359;48.750;9.314;2023-03-25T00:27:43;4.40;;;4.20;;
40675;SDS011;26359;48.750;9.314;2023-03-25T00:30:10;3.42;;;2.75;;
40675;SDS011;26359;48.750;9.314;2023-03-25T00:32:36;3.55;;;3.42;;
40675;SDS011;26359;48.750;9.314;2023-03-25T00:35:03;3.85;;;3.63;;
40675;SDS011;26359;48.750;9.314;2023-03-25T00:37:30;3.80;;;3.40;;
40675;SDS011;26359;48.750;9.314;2023-03-25T00:39:56;3.42;;;3.17;;
40675;SDS011;26359;48.750;9.314;2023-03-25T00:42:21;6.57;;;5.93;;
40675;SDS011;26359;48.750;9.314;2023-03-25T00:44:49;6.25;;;5.65;;
40675;SDS011;26359;48.750;9.314;2023-03-25T00:47:15;8.63;;;8.07;;
40675;SDS011;26359;48.750;9.314;2023-03-25T00:49:42;6.57;;;6.15;;
40675;SDS011;26359;48.750;9.314;2023-03-25T00:52:08;6.40;;;5.97;;
40675;SDS011;26359;48.750;9.314;2023-03-25T00:54:34;15.75;;;14.82;;
40675;SDS011;26359;48.750;9.314;2023-03-25T00:57:02;5.13;;;4.72;;
40675;SDS011;26359;48.750;9.314;2023-03-25T00:59:27;5.95;;;5.43;;
40675;SDS011;26359;48.750;9.314;2023-03-25T01:01:53;4.00;;;3.80;;
40675;SDS011;26359;48.750;9.314;2023-03-25T01:04:20;3.30;;;3.10;;
40675;SDS011;26359;48.750;9.314;2023-03-25T01:06:46;6.47;;;6.07;;
40675;SDS011;26359;48.750;9.314;2023-03-25T01:09:16;4.15;;;3.95;;
40675;SDS011;26359;48.750;9.314;2023-03-25T01:11:44;4.03;;;3.83;;
40675;SDS011;26359;48.750;9.314;2023-03-25T01:14:11;3.55;;;3.28;;
40675;SDS011;26359;48.750;9.314;2023-03-25T01:16:40;3.70;;;3.50;;
40675;SDS011;26359;48.750;9.314;2023-03-25T01:19:06;3.10;;;2.90;;
40675;SDS011;26359;48.750;9.314;2023-03-25T01:21:32;4.13;;;3.28;;
40675;SDS011;26359;48.750;9.314;2023-03-25T01:24:00;3.40;;;3.20;;
40675;SDS011;26359;48.750;9.314;2023-03-25T01:26:27;5.72;;;5.22;;
40675;SDS011;26359;48.750;9.314;2023-03-25T01:28:53;2.88;;;2.65;;
40675;SDS011;26359;48.750;9.314;2023-03-25T01:31:18;8.57;;;8.15;;
40675;SDS011;26359;48.750;9.314;2023-03-25T01:33:46;4.97;;;4.68;;
40675;SDS011;26359;48.750;9.314;2023-03-25T01:36:12;6.80;;;6.25;;
40675;SDS011;26359;48.750;9.314;2023-03-25T01:38:38;6.35;;;5.90;;
40675;SDS011;26359;48.750;9.314;2023-03-25T01:41:05;4.80;;;4.43;;
40675;SDS011;26359;48.750;9.314;2023-03-25T01:43:31;4.70;;;4.18;;
40675;SDS011;26359;48.750;9.314;2023-03-25T01:45:57;4.13;;;3.70;;
40675;SDS011;26359;48.750;9.314;2023-03-25T01:48:27;6.15;;;3.58;;
40675;SDS011;26359;48.750;9.314;2023-03-25T01:50:58;9.85;;;9.25;;
40675;SDS011;26359;48.750;9.314;2023-03-25T01:53:27;5.72;;;4.38;;
40675;SDS011;26359;48.750;9.314;2023-03-25T01:55:55;4.10;;;3.80;;
40675;SDS011;26359;48.750;9.314;2023-03-25T01:58:21;3.90;;;3.38;;
40675;SDS011;26359;48.750;9.314;2023-03-25T02:00:51;12.00;;;11.10;;
40675;SDS011;26359;48.750;9.314;2023-03-25T02:03:18;9.27;;;8.43;;
40675;SDS011;26359;48.750;9.314;2023-03-25T02:08:37;8.02;;;7.43;;
40675;SDS011;26359;48.750;9.314;2023-03-25T02:11:06;5.60;;;3.75;;
40675;SDS011;26359;48.750;9.314;2023-03-25T02:13:35;9.48;;;8.88;;
40675;SDS011;26359;48.750;9.314;2023-03-25T02:16:19;8.95;;;8.05;;
40675;SDS011;26359;48.750;9.314;2023-03-25T02:18:58;5.03;;;4.63;;
40675;SDS011;26359;48.750;9.314;2023-03-25T02:21:51;4.13;;;3.83;;
40675;SDS011;26359;48.750;9.314;2023-03-25T02:30:44;6.15;;;5.75;;
40675;SDS011;26359;48.750;9.314;2023-03-25T02:43:58;3.55;;;3.28;;
40675;SDS011;26359;48.750;9.314;2023-03-25T02:46:26;4.43;;;4.13;;
40675;SDS011;26359;48.750;9.314;2023-03-25T02:51:30;5.13;;;3.10;;
40675;SDS011;26359;48.750;9.314;2023-03-25T02:54:01;2.78;;;2.63;;
40675;SDS011;26359;48.750;9.314;2023-03-25T02:56:32;3.72;;;3.50;;
40675;SDS011;26359;48.750;9.314;2023-03-25T02:59:01;3.42;;;2.47;;
40675;SDS011;26359;48.750;9.314;2023-03-25T03:01:28;4.18;;;3.00;;
40675;SDS011;26359;48.750;9.314;2023-03-25T03:03:54;4.45;;;4.07;;
40675;SDS011;26359;48.750;9.314;2023-03-25T03:06:20;3.47;;;2.30;;
40675;SDS011;26359;48.750;9.314;2023-03-25T03:14:07;5.50;;;5.05;;
40675;SDS011;26359;48.750;9.314;2023-03-25T03:17:12;5.20;;;4.80;;
40675;SDS011;26359;48.750;9.314;2023-03-25T03:24:52;10.25;;;9.48;;
40675;SDS011;26359;48.750;9.314;2023-03-25T03:27:25;4.78;;;4.28;;
40675;SDS011;26359;48.750;9.314;2023-03-25T03:30:11;3.30;;;3.00;;
40675;SDS011;26359;48.750;9.314;2023-03-25T03:35:35;7.55;;;6.97;;
40675;SDS011;26359;48.750;9.314;2023-03-25T03:38:09;6.47;;;6.15;;
40675;SDS011;26359;48.750;9.314;2023-03-25T03:40:39;24.27;;;22.98;;
40675;SDS011;26359;48.750;9.314;2023-03-25T03:43:16;18.05;;;17.05;;
40675;SDS011;26359;48.750;9.314;2023-03-25T03:45:49;13.98;;;13.23;;
40675;SDS011;26359;48.750;9.314;2023-03-25T03:48:25;15.85;;;15.05;;
40675;SDS011;26359;48.750;9.314;2023-03-25T03:50:55;31.83;;;30.27;;
40675;SDS011;26359;48.750;9.314;2023-03-25T03:53:30;9.43;;;8.93;;
40675;SDS011;26359;48.750;9.314;2023-03-25T03:58:36;10.20;;;9.60;;
40675;SDS011;26359;48.750;9.314;2023-03-25T04:01:08;6.35;;;6.05;;
40675;SDS011;26359;48.750;9.314;2023-03-25T04:03:51;7.22;;;6.78;;
40675;SDS011;26359;48.750;9.314;2023-03-25T04:06:22;4.80;;;4.53;;
40675;SDS011;26359;48.750;9.314;2023-03-25T04:14:29;8.32;;;7.80;;
40675;SDS011;26359;48.750;9.314;2023-03-25T04:16:55;3.65;;;3.45;;
40675;SDS011;26359;48.750;9.314;2023-03-25T04:19:20;9.15;;;8.50;;
40675;SDS011;26359;48.750;9.314;2023-03-25T04:21:47;4.03;;;3.72;;
40675;SDS011;26359;48.750;9.314;2023-03-25T04:24:13;2.95;;;2.80;;
40675;SDS011;26359;48.750;9.314;2023-03-25T04:26:40;2.92;;;2.72;;
40675;SDS011;26359;48.750;9.314;2023-03-25T04:29:07;8.30;;;7.80;;
40675;SDS011;26359;48.750;9.314;2023-03-25T04:31:33;6.03;;;5.72;;
40675;SDS011;26359;48.750;9.314;2023-03-25T04:34:00;10.77;;;10.25;;
40675;SDS011;26359;48.750;9.314;2023-03-25T04:36:28;5.72;;;5.32;;
40675;SDS011;26359;48.750;9.314;2023-03-25T04:38:57;2.97;;;2.78;;
40675;SDS011;26359;48.750;9.314;2023-03-25T04:41:23;2.80;;;2.60;;
40675;SDS011;26359;48.750;9.314;2023-03-25T04:43:49;2.65;;;2.38;;
40675;SDS011;26359;48.750;9.314;2023-03-25T04:46:15;2.78;;;2.58;;
40675;SDS011;26359;48.750;9.314;2023-03-25T04:48:42;5.13;;;4.82;;
40675;SDS011;26359;48.750;9.314;2023-03-25T04:51:10;6.30;;;5.90;;
40675;SDS011;26359;48.750;9.314;2023-03-25T04:53:37;4.60;;;4.28;;
40675;SDS011;26359;48.750;9.314;2023-03-25T04:56:04;2.70;;;2.50;;
40675;SDS011;26359;48.750;9.314;2023-03-25T04:58:31;3.47;;;3.28;;
40675;SDS011;26359;48.750;9.314;2023-03-25T05:00:56;5.43;;;5.03;;
40675;SDS011;26359;48.750;9.314;2023-03-25T05:03:30;4.07;;;3.78;;
40675;SDS011;26359;48.750;9.314;2023-03-25T05:05:56;6.00;;;5.50;;
40675;SDS011;26359;48.750;9.314;2023-03-25T05:08:21;8.35;;;7.95;;
40675;SDS011;26359;48.750;9.314;2023-03-25T05:10:47;5.10;;;4.78;;
40675;SDS011;26359;48.750;9.314;2023-03-25T05:13:13;6.05;;;5.60;;
40675;SDS011;26359;48.750;9.314;2023-03-25T05:15:39;5.10;;;4.70;;
40675;SDS011;26359;48.750;9.314;2023-03-25T05:18:08;7.03;;;6.45;;
40675;SDS011;26359;48.750;9.314;2023-03-25T05:20:40;7.15;;;6.57;;
40675;SDS011;26359;48.750;9.314;2023-03-25T05:23:11;4.45;;;4.25;;
40675;SDS011;26359;48.750;9.314;2023-03-25T05:25:41;3.80;;;3.35;;
40675;SDS011;26359;48.750;9.314;2023-03-25T05:28:08;3.25;;;3.03;;
40675;SDS011;26359;48.750;9.314;2023-03-25T05:30:37;2.72;;;2.53;;
40675;SDS011;26359;48.750;9.314;2023-03-25T05:33:09;2.42;;;2.22;;
40675;SDS011;26359;48.750;9.314;2023-03-25T05:35:36;3.40;;;3.08;;
40675;SDS011;26359;48.750;9.314;2023-03-25T05:38:05;3.92;;;3.58;;
40675;SDS011;26359;48.750;9.314;2023-03-25T05:40:40;4.30;;;4.05;;
40675;SDS011;26359;48.750;9.314;2023-03-25T05:43:06;3.90;;;3.55;;
40675;SDS011;26359;48.750;9.314;2023-03-25T05:45:32;4.95;;;4.05;;
40675;SDS011;26359;48.750;9.314;2023-03-25T05:47:59;3.05;;;2.72;;
40675;SDS011;26359;48.750;9.314;2023-03-25T05:50:26;4.45;;;4.05;;
40675;SDS011;26359;48.750;9.314;2023-03-25T05:52:52;3.95;;;3.63;;
40675;SDS011;26359;48.750;9.314;2023-03-25T05:55:19;4.68;;;3.95;;
40675;SDS011;26359;48.750;9.314;2023-03-25T05:57:46;6.55;;;5.45;;
40675;SDS011;26359;48.750;9.314;2023-03-25T06:00:12;4.93;;;2.90;;
40675;SDS011;26359;48.750;9.314;2023-03-25T06:02:40;5.70;;;4.90;;
40675;SDS011;26359;48.750;9.314;2023-03-25T06:05:09;4.28;;;3.97;;
40675;SDS011;26359;48.750;9.314;2023-03-25T06:07:38;7.00;;;6.43;;
40675;SDS011;26359;48.750;9.314;2023-03-25T06:10:06;4.85;;;4.03;;
40675;SDS011;26359;48.750;9.314;2023-03-25T06:12:33;5.45;;;5.05;;
40675;SDS011;26359;48.750;9.314;2023-03-25T06:15:03;4.10;;;3.80;;
40675;SDS011;26359;48.750;9.314;2023-03-25T06:17:30;5.40;;;2.70;;
40675;SDS011;26359;48.750;9.314;2023-03-25T06:19:57;4.85;;;4.45;;
40675;SDS011;26359;48.750;9.314;2023-03-25T06:22:24;7.50;;;6.32;;
40675;SDS011;26359;48.750;9.314;2023-03-25T06:24:50;8.70;;;8.05;;
40675;SDS011;26359;48.750;9.314;2023-03-25T06:27:17;9.35;;;8.65;;
40675;SDS011;26359;48.750;9.314;2023-03-25T06:29:45;6.13;;;4.60;;
40675;SDS011;26359;48.750;9.314;2023-03-25T06:32:11;6.88;;;3.92;;
40675;SDS011;26359;48.750;9.314;2023-03-25T06:34:38;6.28;;;5.70;;
40675;SDS011;26359;48.750;9.314;2023-03-25T06:37:06;7.22;;;6.78;;
40675;SDS011;26359;48.750;9.314;2023-03-25T06:39:32;6.28;;;5.80;;
40675;SDS011;26359;48.750;9.314;2023-03-25T06:41:58;8.07;;;7.20;;
40675;SDS011;26359;48.750;9.314;2023-03-25T06:44:24;8.90;;;8.32;;
40675;SDS011;26359;48.750;9.314;2023-03-25T06:46:50;11.45;;;7.07;;
40675;SDS011;26359;48.750;9.314;2023-03-25T06:49:16;6.30;;;3.50;;
40675;SDS011;26359;48.750;9.314;2023-03-25T06:51:42;3.83;;;2.85;;
40675;SDS011;26359;48.750;9.314;2023-03-25T06:54:07;10.23;;;9.38;;
40675;SDS011;26359;48.750;9.314;2023-03-25T06:56:33;8.13;;;7.53;;
40675;SDS011;26359;48.750;9.314;2023-03-25T06:58:59;4.95;;;4.57;;
40675;SDS011;26359;48.750;9.314;2023-03-25T07:01:24;5.47;;;4.25;;
40675;SDS011;26359;48.750;9.314;2023-03-25T07:03:50;7.38;;;6.68;;
40675;SDS011;26359;48.750;9.314;2023-03-25T07:06:17;10.60;;;9.60;;
40675;SDS011;26359;48.750;9.314;2023-03-25T07:08:44;20.45;;;19.02;;
40675;SDS011;26359;48.750;9.314;2023-03-25T07:11:11;14.00;;;12.85;;
40675;SDS011;26359;48.750;9.314;2023-03-25T07:13:38;6.85;;;6.20;;
40675;SDS011;26359;48.750;9.314;2023-03-25T07:16:03;47.92;;;45.33;;
40675;SDS011;26359;48.750;9.314;2023-03-25T07:18:29;31.98;;;29.98;;
40675;SDS011;26359;48.750;9.314;2023-03-25T07:20:55;39.80;;;37.45;;
40675;SDS011;26359;48.750;9.314;2023-03-25T07:23:20;50.33;;;47.72;;
40675;SDS011;26359;48.750;9.314;2023-03-25T07:25:46;29.38;;;27.65;;
40675;SDS011;26359;48.750;9.314;2023-03-25T07:28:11;28.00;;;26.25;;
40675;SDS011;26359;48.750;9.314;2023-03-25T07:30:38;7.72;;;7.05;;
40675;SDS011;26359;48.750;9.314;2023-03-25T07:33:04;29.83;;;27.92;;
40675;SDS011;26359;48.750;9.314;2023-03-25T07:35:30;35.30;;;33.33;;
40675;SDS011;26359;48.750;9.314;2023-03-25T07:37:55;30.77;;;28.95;;
40675;SDS011;26359;48.750;9.314;2023-03-25T07:40:21;39.53;;;37.33;;
40675;SDS011;26359;48.750;9.314;2023-03-25T07:42:47;25.20;;;23.85;;
40675;SDS011;26359;48.750;9.314;2023-03-25T07:45:12;6.88;;;6.25;;
40675;SDS011;26359;48.750;9.314;2023-03-25T07:47:38;7.65;;;6.88;;
40675;SDS011;26359;48.750;9.314;2023-03-25T07:50:04;8.43;;;7.35;;
40675;SDS011;26359;48.750;9.314;2023-03-25T07:52:30;5.25;;;3.97;;
40675;SDS011;26359;48.750;9.314;2023-03-25T07:54:55;4.78;;;3.30;;
40675;SDS011;26359;48.750;9.314;2023-03-25T07:57:21;4.10;;;3.13;;
40675;SDS011;26359;48.750;9.314;2023-03-25T07:59:46;3.95;;;3.75;;
40675;SDS011;26359;48.750;9.314;2023-03-25T08:02:12;4.63;;;4.32;;
40675;SDS011;26359;48.750;9.314;2023-03-25T08:04:38;4.43;;;4.03;;
40675;SDS011;26359;48.750;9.314;2023-03-25T08:07:04;4.35;;;3.97;;
40675;SDS011;26359;48.750;9.314;2023-03-25T08:09:30;5.07;;;3.35;;
40675;SDS011;26359;48.750;9.314;2023-03-25T08:11:56;4.18;;;3.78;;
40675;SDS011;26359;48.750;9.314;2023-03-25T08:14:21;4.57;;;3.45;;
40675;SDS011;26359;48.750;9.314;2023-03-25T08:16:47;3.22;;;2.65;;
40675;SDS011;26359;48.750;9.314;2023-03-25T08:19:12;5.40;;;4.95;;
40675;SDS011;26359;48.750;9.314;2023-03-25T08:21:38;5.50;;;3.83;;
40675;SDS011;26359;48.750;9.314;2023-03-25T08:24:04;5.25;;;4.72;;
40675;SDS011;26359;48.750;9.314;2023-03-25T08:26:30;5.10;;;4.60;;
40675;SDS011;26359;48.750;9.314;2023-03-25T08:28:57;4.38;;;3.97;;
40675;SDS011;26359;48.750;9.314;2023-03-25T08:31:23;4.53;;;3.95;;
40675;SDS011;26359;48.750;9.314;2023-03-25T08:33:50;4.20;;;3.78;;
40675;SDS011;26359;48.750;9.314;2023-03-25T08:36:16;4.60;;;3.13;;
40675;SDS011;26359;48.750;9.314;2023-03-25T08:38:47;2.72;;;2.53;;
40675;SDS011;26359;48.750;9.314;2023-03-25T08:41:14;7.72;;;3.30;;
40675;SDS011;26359;48.750;9.314;2023-03-25T08:43:40;4.50;;;4.20;;
40675;SDS011;26359;48.750;9.314;2023-03-25T08:46:05;4.50;;;4.20;;
40675;SDS011;26359;48.750;9.314;2023-03-25T08:48:31;3.53;;;3.28;;
40675;SDS011;26359;48.750;9.314;2023-03-25T08:50:57;4.85;;;4.47;;
40675;SDS011;26359;48.750;9.314;2023-03-25T08:53:22;3.92;;;3.63;;
40675;SDS011;26359;48.750;9.314;2023-03-25T08:55:49;10.75;;;10.15;;
40675;SDS011;26359;48.750;9.314;2023-03-25T08:58:18;7.90;;;7.47;;
40675;SDS011;26359;48.750;9.314;2023-03-25T09:00:44;2.53;;;2.42;;
40675;SDS011;26359;48.750;9.314;2023-03-25T09:03:11;11.00;;;10.40;;
40675;SDS011;26359;48.750;9.314;2023-03-25T09:05:37;5.57;;;5.22;;
40675;SDS011;26359;48.750;9.314;2023-03-25T09:08:03;5.10;;;4.80;;
40675;SDS011;26359;48.750;9.314;2023-03-25T09:10:29;4.97;;;4.57;;
40675;SDS011;26359;48.750;9.314;2023-03-25T09:12:55;4.47;;;4.18;;
40675;SDS011;26359;48.750;9.314;2023-03-25T09:15:21;4.60;;;4.00;;
40675;SDS011;26359;48.750;9.314;2023-03-25T09:17:47;8.32;;;7.93;;
40675;SDS011;26359;48.750;9.314;2023-03-25T09:20:12;5.10;;;4.60;;
40675;SDS011;26359;48.750;9.314;2023-03-25T09:22:39;4.35;;;4.05;;
40675;SDS011;26359;48.750;9.314;2023-03-25T09:25:05;4.70;;;4.43;;
40675;SDS011;26359;48.750;9.314;2023-03-25T09:27:31;2.83;;;2.63;;
40675;SDS011;26359;48.750;9.314;2023-03-25T09:29:57;2.45;;;2.28;;
40675;SDS011;26359;48.750;9.314;2023-03-25T09:32:23;6.13;;;2.30;;
40675;SDS011;26359;48.750;9.314;2023-03-25T09:34:49;4.38;;;3.20;;
40675;SDS011;26359;48.750;9.314;2023-03-25T09:37:15;2.65;;;1.90;;
40675;SDS011;26359;48.750;9.314;2023-03-25T09:39:41;3.28;;;3.08;;
40675;SDS011;26359;48.750;9.314;2023-03-25T09:45:04;4.22;;;3.67;;
40675;SDS011;26359;48.750;9.314;2023-03-25T09:47:31;1.88;;;1.77;;
40675;SDS011;26359;48.750;9.314;2023-03-25T09:50:00;2.75;;;2.55;;
40675;SDS011;26359;48.750;9.314;2023-03-25T09:52:38;3.22;;;3.03;;
40675;SDS011;26359;48.750;9.314;2023-03-25T09:55:25;2.72;;;2.63;;
40675;SDS011;26359;48.750;9.314;2023-03-25T09:57:55;2.03;;;1.90;;
40675;SDS011;26359;48.750;9.314;2023-03-25T10:00:28;3.53;;;3.03;;
40675;SDS011;26359;48.750;9.314;2023-03-25T10:05:32;3.60;;;3.35;;
40675;SDS011;26359;48.750;9.314;2023-03-25T10:08:20;7.47;;;6.90;;
40675;SDS011;26359;48.750;9.314;2023-03-25T10:11:05;9.35;;;8.85;;
40675;SDS011;26359;48.750;9.314;2023-03-25T10:16:25;4.45;;;4.05;;
40675;SDS011;26359;48.750;9.314;2023-03-25T10:19:24;6.43;;;5.93;;
40675;SDS011;26359;48.750;9.314;2023-03-25T10:22:25;4.25;;;4.05;;
40675;SDS011;26359;48.750;9.314;2023-03-25T10:24:58;5.43;;;5.13;;
40675;SDS011;26359;48.750;9.314;2023-03-25T10:32:57;5.85;;;5.45;;
40675;SDS011;26359;48.750;9.314;2023-03-25T10:35:41;4.13;;;3.83;;
40675;SDS011;26359;48.750;9.314;2023-03-25T10:38:13;4.80;;;4.50;;
40675;SDS011;26359;48.750;9.314;2023-03-25T10:40:43;4.20;;;3.90;;
40675;SDS011;26359;48.750;9.314;2023-03-25T10:46:06;5.38;;;5.07;;
40675;SDS011;26359;48.750;9.314;2023-03-25T10:48:54;4.85;;;4.55;;
40675;SDS011;26359;48.750;9.314;2023-03-25T10:51:21;3.92;;;3.72;;
40675;SDS011;26359;48.750;9.314;2023-03-25T10:53:52;4.28;;;4.00;;
40675;SDS011;26359;48.750;9.314;2023-03-25T10:56:20;3.97;;;3.67;;
40675;SDS011;26359;48.750;9.314;2023-03-25T10:58:50;5.10;;;4.63;;
40675;SDS011;26359;48.750;9.314;2023-03-25T11:01:28;3.28;;;3.08;;
40675;SDS011;26359;48.750;9.314;2023-03-25T11:04:03;3.03;;;2.80;;
40675;SDS011;26359;48.750;9.314;2023-03-25T11:06:31;3.47;;;3.28;;
40675;SDS011;26359;48.750;9.314;2023-03-25T11:09:12;3.17;;;2.97;;
40675;SDS011;26359;48.750;9.314;2023-03-25T11:11:47;2.95;;;2.75;;
40675;SDS011;26359;48.750;9.314;2023-03-25T11:14:13;5.15;;;4.65;;
40675;SDS011;26359;48.750;9.314;2023-03-25T11:16:43;3.40;;;3.20;;
40675;SDS011;26359;48.750;9.314;2023-03-25T11:19:19;4.47;;;4.18;;
40675;SDS011;26359;48.750;9.314;2023-03-25T11:21:52;5.30;;;4.85;;
40675;SDS011;26359;48.750;9.314;2023-03-25T11:24:20;5.00;;;4.70;;
40675;SDS011;26359;48.750;9.314;2023-03-25T11:26:51;5.18;;;4.80;;
40675;SDS011;26359;48.750;9.314;2023-03-25T11:29:18;6.35;;;5.78;;
40675;SDS011;26359;48.750;9.314;2023-03-25T11:31:57;8.30;;;7.78;;
40675;SDS011;26359;48.750;9.314;2023-03-25T11:34:30;5.88;;;5.47;;
40675;SDS011;26359;48.750;9.314;2023-03-25T11:37:00;9.70;;;9.15;;
40675;SDS011;26359;48.750;9.314;2023-03-25T11:39:37;7.13;;;6.78;;
40675;SDS011;26359;48.750;9.314;2023-03-25T11:42:10;12.95;;;12.25;;
40675;SDS011;26359;48.750;9.314;2023-03-25T11:44:53;10.65;;;9.80;;
40675;SDS011;26359;48.750;9.314;2023-03-25T11:47:31;7.88;;;7.47;;
40675;SDS011;26359;48.750;9.314;2023-03-25T11:49:58;10.88;;;10.27;;
40675;SDS011;26359;48.750;9.314;2023-03-25T11:52:45;7.60;;;7.03;;
40675;SDS011;26359;48.750;9.314;2023-03-25T11:55:19;5.18;;;4.78;;
40675;SDS011;26359;48.750;9.314;2023-03-25T11:57:48;5.03;;;4.43;;
40675;SDS011;26359;48.750;9.314;2023-03-25T12:05:37;16.83;;;15.98;;
40675;SDS011;26359;48.750;9.314;2023-03-25T12:08:10;19.90;;;18.73;;
40675;SDS011;26359;48.750;9.314;2023-03-25T12:10:45;4.95;;;4.53;;
40675;SDS011;26359;48.750;9.314;2023-03-25T12:13:42;5.25;;;4.95;;
40675;SDS011;26359;48.750;9.314;2023-03-25T12:21:54;6.57;;;6.03;;
40675;SDS011;26359;48.750;9.314;2023-03-25T12:27:38;5.20;;;4.80;;
40675;SDS011;26359;48.750;9.314;2023-03-25T12:32:57;4.95;;;4.55;;
40675;SDS011;26359;48.750;9.314;2023-03-25T12:43:21;6.30;;;5.80;;
40675;SDS011;26359;48.750;9.314;2023-03-25T12:46:06;16.42;;;15.55;;
40675;SDS011;26359;48.750;9.314;2023-03-25T12:51:15;9.80;;;9.20;;
40675;SDS011;26359;48.750;9.314;2023-03-25T12:53:56;11.55;;;10.95;;
40675;SDS011;26359;48.750;9.314;2023-03-25T12:59:14;3.60;;;3.40;;
40675;SDS011;26359;48.750;9.314;2023-03-25T13:10:58;3.65;;;3.35;;
40675;SDS011;26359;48.750;9.314;2023-03-25T13:13:41;7.82;;;7.28;;
40675;SDS011;26359;48.750;9.314;2023-03-25T13:16:12;7.22;;;6.75;;
40675;SDS011;26359;48.750;9.314;2023-03-25T13:18:46;7.43;;;5.60;;
40675;SDS011;26359;48.750;9.314;2023-03-25T13:21:20;4.50;;;4.20;;
40675;SDS011;26359;48.750;9.314;2023-03-25T13:23:51;14.13;;;13.23;;
40675;SDS011;26359;48.750;9.314;2023-03-25T13:26:24;11.38;;;10.77;;
40675;SDS011;26359;48.750;9.314;2023-03-25T13:28:54;10.10;;;9.38;;
40675;SDS011;26359;48.750;9.314;2023-03-25T13:31:57;8.88;;;8.38;;
40675;SDS011;26359;48.750;9.314;2023-03-25T13:34:25;8.35;;;7.75;;
40675;SDS011;26359;48.750;9.314;2023-03-25T13:36:57;7.60;;;7.13;;
40675;SDS011;26359;48.750;9.314;2023-03-25T13:39:45;5.70;;;5.45;;
40675;SDS011;26359;48.750;9.314;2023-03-25T13:45:42;10.35;;;9.73;;
40675;SDS011;26359;48.750;9.314;2023-03-25T13:48:23;4.57;;;4.22;;
40675;SDS011;26359;48.750;9.314;2023-03-25T13:50:58;4.03;;;3.63;;
40675;SDS011;26359;48.750;9.314;2023-03-25T13:53:31;7.25;;;6.82;;
40675;SDS011;26359;48.750;9.314;2023-03-25T13:58:43;5.57;;;5.10;;
40675;SDS011;26359;48.750;9.314;2023-03-25T14:06:55;10.73;;;10.10;;
40675;SDS011;26359;48.750;9.314;2023-03-25T14:15:11;13.18;;;12.48;;
40675;SDS011;26359;48.750;9.314;2023-03-25T14:17:41;13.48;;;12.65;;
40675;SDS011;26359;48.750;9.314;2023-03-25T14:20:10;8.60;;;7.90;;
40675;SDS011;26359;48.750;9.314;2023-03-25T14:22:41;8.98;;;8.27;;
40675;SDS011;26359;48.750;9.314;2023-03-25T14:25:13;12.07;;;11.38;;
40675;SDS011;26359;48.750;9.314;2023-03-25T14:27:52;6.20;;;5.13;;
40675;SDS011;26359;48.750;9.314;2023-03-25T14:30:22;4.53;;;4.30;;
40675;SDS011;26359;48.750;9.314;2023-03-25T14:32:51;5.10;;;4.63;;
40675;SDS011;26359;48.750;9.314;2023-03-25T14:43:20;18.15;;;17.10;;
40675;SDS011;26359;48.750;9.314;2023-03-25T14:45:53;8.30;;;7.63;;
40675;SDS011;26359;48.750;9.314;2023-03-25T14:48:28;7.03;;;6.40;;
40675;SDS011;26359;48.750;9.314;2023-03-25T14:53:39;8.25;;;7.75;;
40675;SDS011;26359;48.750;9.314;2023-03-25T14:56:06;8.07;;;7.38;;
40675;SDS011;26359;48.750;9.314;2023-03-25T14:58:39;6.47;;;5.88;;
40675;SDS011;26359;48.750;9.314;2023-03-25T15:01:08;4.93;;;4.53;;
40675;SDS011;26359;48.750;9.314;2023-03-25T15:03:39;4.45;;;4.05;;
40675;SDS011;26359;48.750;9.314;2023-03-25T15:06:08;5.32;;;4.80;;
40675;SDS011;26359;48.750;9.314;2023-03-25T15:08:40;5.20;;;3.75;;
40675;SDS011;26359;48.750;9.314;2023-03-25T15:11:14;4.90;;;3.80;;
40675;SDS011;26359;48.750;9.314;2023-03-25T15:13:46;4.90;;;4.40;;
40675;SDS011;26359;48.750;9.314;2023-03-25T15:16:26;5.05;;;4.18;;
40675;SDS011;26359;48.750;9.314;2023-03-25T15:19:01;6.93;;;6.32;;
40675;SDS011;26359;48.750;9.314;2023-03-25T15:21:32;5.65;;;5.25;;
40675;SDS011;26359;48.750;9.314;2023-03-25T15:24:20;7.32;;;6.75;;
40675;SDS011;26359;48.750;9.314;2023-03-25T15:26:54;4.53;;;3.58;;
40675;SDS011;26359;48.750;9.314;2023-03-25T15:29:45;3.30;;;3.00;;
40675;SDS011;26359;48.750;9.314;2023-03-25T15:32:31;7.13;;;3.45;;
40675;SDS011;26359;48.750;9.314;2023-03-25T15:41:42;5.10;;;4.60;;
40675;SDS011;26359;48.750;9.314;2023-03-25T15:47:16;3.90;;;3.60;;
40675;SDS011;26359;48.750;9.314;2023-03-25T15:52:57;3.90;;;3.50;;
40675;SDS011;26359;48.750;9.314;2023-03-25T15:55:51;3.97;;;3.65;;
40675;SDS011;26359;48.750;9.314;2023-03-25T15:58:24;6.03;;;5.55;;
40675;SDS011;26359;48.750;9.314;2023-03-25T16:00:58;5.20;;;4.80;;
40675;SDS011;26359;48.750;9.314;2023-03-25T16:03:32;3.90;;;3.50;;
40675;SDS011;26359;48.750;9.314;2023-03-25T16:05:59;3.90;;;3.60;;
40675;SDS011;26359;48.750;9.314;2023-03-25T16:08:36;3.85;;;3.65;;
40675;SDS011;26359;48.750;9.314;2023-03-25T16:13:39;6.22;;;5.60;;
40675;SDS011;26359;48.750;9.314;2023-03-25T16:16:05;4.95;;;4.55;;
40675;SDS011;26359;48.750;9.314;2023-03-25T16:18:33;8.13;;;7.53;;
40675;SDS011;26359;48.750;9.314;2023-03-25T16:20:59;7.07;;;6.57;;
40675;SDS011;26359;48.750;9.314;2023-03-25T16:23:27;21.52;;;20.20;;
40675;SDS011;26359;48.750;9.314;2023-03-25T16:25:54;21.35;;;20.02;;
40675;SDS011;26359;48.750;9.314;2023-03-25T16:28:41;26.45;;;24.85;;
40675;SDS011;26359;48.750;9.314;2023-03-25T16:31:27;8.00;;;7.30;;
40675;SDS011;26359;48.750;9.314;2023-03-25T16:34:05;4.10;;;3.75;;
40675;SDS011;26359;48.750;9.314;2023-03-25T16:36:37;4.32;;;3.88;;
40675;SDS011;26359;48.750;9.314;2023-03-25T16:39:03;9.07;;;8.27;;
40675;SDS011;26359;48.750;9.314;2023-03-25T16:41:30;8.05;;;7.38;;
40675;SDS011;26359;48.750;9.314;2023-03-25T16:43:55;8.15;;;7.60;;
40675;SDS011;26359;48.750;9.314;2023-03-25T16:46:22;9.50;;;8.88;;
40675;SDS011;26359;48.750;9.314;2023-03-25T16:48:49;8.75;;;7.95;;
40675;SDS011;26359;48.750;9.314;2023-03-25T16:51:19;6.10;;;5.50;;
40675;SDS011;26359;48.750;9.314;2023-03-25T16:53:59;6.00;;;5.50;;
40675;SDS011;26359;48.750;9.314;2023-03-25T16:56:28;7.97;;;7.32;;
40675;SDS011;26359;48.750;9.314;2023-03-25T16:59:04;9.85;;;8.90;;
40675;SDS011;26359;48.750;9.314;2023-03-25T17:01:38;7.47;;;6.88;;
40675;SDS011;26359;48.750;9.314;2023-03-25T17:06:34;9.57;;;8.77;;
40675;SDS011;26359;48.750;9.314;2023-03-25T17:09:03;6.30;;;5.90;;
40675;SDS011;26359;48.750;9.314;2023-03-25T17:11:32;7.10;;;6.40;;
40675;SDS011;26359;48.750;9.314;2023-03-25T17:13:59;7.57;;;6.93;;
40675;SDS011;26359;48.750;9.314;2023-03-25T17:16:27;8.45;;;7.85;;
40675;SDS011;26359;48.750;9.314;2023-03-25T17:18:55;10.98;;;10.27;;
40675;SDS011;26359;48.750;9.314;2023-03-25T17:21:25;25.30;;;23.77;;
40675;SDS011;26359;48.750;9.314;2023-03-25T17:23:54;18.27;;;17.05;;
40675;SDS011;26359;48.750;9.314;2023-03-25T17:26:22;11.43;;;10.43;;